Time;durP1;ratioP1;P1;durP2;ratioP2;P2;SDS_P1;SDS_P2;PMS_P1;PMS_P2;Temp;Humidity;BMP_temperature;BMP_pressure;BME280_temperature;BME280_humidity;BME280_pressure;Samples;Min_cycle;Max_cycle;Signal;HPM_P1;HPM_P2
2022/07/16 00:02:14;;;;;;;2.10;2.00;;;13.60;99.90;;;;;;483438;246;28284;-68
2022/07/16 00:04:15;;;;;;;2.10;2.00;;;13.50;99.90;;;;;;483388;245;28822;-68
2022/07/16 00:06:16;;;;;;;2.20;2.00;;;13.50;99.90;;;;;;483433;245;29003;-69
2022/07/16 00:08:17;;;;;;;2.47;2.27;;;13.50;99.90;;;;;;483441;245;28736;-71
2022/07/16 00:10:19;;;;;;;2.03;1.93;;;13.50;99.90;;;;;;483448;245;28733;-68
2022/07/16 00:12:20;;;;;;;2.07;1.97;;;13.50;99.90;;;;;;483432;245;28184;-69
2022/07/16 00:14:21;;;;;;;1.90;1.80;;;13.40;99.90;;;;;;483447;245;28292;-69
2022/07/16 00:16:22;;;;;;;1.97;1.87;;;13.40;99.90;;;;;;483445;245;28248;-69
2022/07/16 00:20:43;;;;;;;2.13;2.00;;;13.30;99.90;;;;;;483428;246;28439;-71
2022/07/16 00:22:45;;;;;;;2.30;2.20;;;13.20;99.90;;;;;;483448;245;28538;-68
2022/07/16 00:24:46;;;;;;;2.43;2.20;;;13.20;99.90;;;;;;483429;245;28664;-70
2022/07/16 00:26:47;;;;;;;2.30;2.20;;;13.10;99.90;;;;;;483419;245;28800;-69
2022/07/16 00:28:48;;;;;;;1.93;1.83;;;13.00;99.90;;;;;;483442;245;28672;-69
2022/07/16 00:30:50;;;;;;;3.23;2.40;;;12.80;99.90;;;;;;483470;245;28161;-72
2022/07/16 00:32:51;;;;;;;2.47;2.27;;;12.70;99.90;;;;;;483438;245;28346;-69
2022/07/16 00:34:52;;;;;;;2.33;2.23;;;12.70;99.90;;;;;;483422;245;28172;-69
2022/07/16 00:36:53;;;;;;;2.50;2.30;;;12.70;99.90;;;;;;483439;245;28186;-68
2022/07/16 00:38:55;;;;;;;2.30;2.20;;;12.80;99.90;;;;;;483434;245;28170;-69
2022/07/16 00:40:56;;;;;;;2.40;2.20;;;12.80;99.90;;;;;;483416;245;28822;-72
2022/07/16 00:42:58;;;;;;;2.50;2.30;;;12.90;99.90;;;;;;483437;245;28287;-68
2022/07/16 00:44:58;;;;;;;2.30;2.20;;;12.90;99.90;;;;;;483409;243;28185;-69
2022/07/16 00:47:00;;;;;;;2.50;2.30;;;12.90;99.90;;;;;;483470;245;28611;-68
2022/07/16 00:49:01;;;;;;;2.10;2.00;;;12.90;99.90;;;;;;483464;245;29294;-68
2022/07/16 00:51:02;;;;;;;2.20;2.10;;;12.80;99.90;;;;;;483462;245;29398;-71
2022/07/16 00:53:03;;;;;;;2.17;2.07;;;12.80;99.90;;;;;;483479;245;28738;-68
2022/07/16 00:55:05;;;;;;;2.10;2.00;;;12.80;99.90;;;;;;483467;245;28266;-70
2022/07/16 00:57:06;;;;;;;2.70;1.97;;;12.70;99.90;;;;;;483480;245;28149;-67
2022/07/16 00:59:07;;;;;;;2.07;1.97;;;12.60;99.90;;;;;;483464;245;28625;-69
2022/07/16 01:01:08;;;;;;;2.33;2.13;;;12.50;99.90;;;;;;483492;245;28228;-69
2022/07/16 01:03:10;;;;;;;2.33;2.13;;;12.50;99.90;;;;;;483483;245;28682;-68
2022/07/16 01:05:11;;;;;;;2.70;2.37;;;12.50;99.90;;;;;;483460;246;28323;-69
2022/07/16 01:07:13;;;;;;;2.57;2.37;;;;;;;;;;483448;245;28769;-67
2022/07/16 01:09:15;;;;;;;2.20;2.10;;;12.40;99.90;;;;;;483455;246;26616;-72
2022/07/16 01:11:16;;;;;;;2.40;2.30;;;12.50;99.90;;;;;;483463;245;28170;-68
2022/07/16 01:13:17;;;;;;;2.30;2.20;;;12.50;99.90;;;;;;483467;245;28802;-70
2022/07/16 01:15:18;;;;;;;2.40;2.30;;;12.50;99.90;;;;;;483444;245;28348;-69
2022/07/16 01:17:20;;;;;;;2.80;2.60;;;12.50;99.90;;;;;;483447;245;28315;-68
2022/07/16 01:19:21;;;;;;;2.30;2.20;;;12.40;99.90;;;;;;483478;245;28545;-71
2022/07/16 01:21:22;;;;;;;2.40;2.30;;;12.40;99.90;;;;;;483456;245;28210;-68
2022/07/16 01:23:23;;;;;;;2.10;2.00;;;12.40;99.90;;;;;;483469;245;28399;-71
2022/07/16 01:25:26;;;;;;;2.37;2.27;;;;;;;;;;483475;245;28502;-68
2022/07/16 01:27:27;;;;;;;2.53;2.33;;;12.30;99.90;;;;;;483463;246;26643;-71
2022/07/16 01:29:29;;;;;;;2.40;2.30;;;12.30;99.90;;;;;;483460;246;28646;-68
2022/07/16 01:31:30;;;;;;;2.53;2.30;;;12.30;99.90;;;;;;483462;246;28045;-68
2022/07/16 01:33:31;;;;;;;2.43;2.30;;;12.30;99.90;;;;;;483328;246;28551;-68
2022/07/16 01:35:32;;;;;;;2.60;2.40;;;12.20;99.90;;;;;;483413;245;28279;-69
2022/07/16 01:37:33;;;;;;;2.40;2.30;;;12.10;99.90;;;;;;483444;245;28757;-71
2022/07/16 01:39:35;;;;;;;2.23;2.13;;;12.10;99.90;;;;;;483472;245;28476;-68
2022/07/16 01:41:36;;;;;;;2.47;2.27;;;12.10;99.90;;;;;;483481;245;28217;-68
2022/07/16 01:43:37;;;;;;;2.23;2.13;;;12.10;99.90;;;;;;483485;245;28471;-68
2022/07/16 01:45:38;;;;;;;2.60;2.40;;;12.10;99.90;;;;;;483485;245;28089;-67
2022/07/16 01:47:40;;;;;;;2.80;2.60;;;12.10;99.90;;;;;;483492;245;28317;-70
2022/07/16 01:49:41;;;;;;;3.33;2.13;;;12.00;99.90;;;;;;483477;245;28504;-68
2022/07/16 01:51:42;;;;;;;2.47;2.37;;;11.90;99.90;;;;;;483277;245;28301;-69
2022/07/16 01:53:43;;;;;;;3.00;2.70;;;12.00;99.90;;;;;;483427;245;28956;-68
2022/07/16 01:55:45;;;;;;;6.53;2.30;;;12.00;99.90;;;;;;483448;245;28966;-69
2022/07/16 01:57:46;;;;;;;2.90;2.70;;;12.00;99.90;;;;;;483460;246;28537;-72
2022/07/16 01:59:47;;;;;;;2.53;2.00;;;12.00;99.90;;;;;;483452;245;28532;-69
2022/07/16 02:01:49;;;;;;;2.30;2.20;;;12.10;99.90;;;;;;483444;245;28093;-69
2022/07/16 02:03:50;;;;;;;2.47;2.37;;;12.10;99.90;;;;;;483463;245;28000;-68
2022/07/16 02:05:51;;;;;;;2.53;2.33;;;12.10;99.90;;;;;;483432;246;28081;-68
2022/07/16 02:07:52;;;;;;;2.40;2.30;;;12.00;99.90;;;;;;483459;245;28521;-71
2022/07/16 02:09:53;;;;;;;2.20;2.10;;;12.00;99.90;;;;;;483441;245;28503;-68
2022/07/16 02:11:55;;;;;;;2.37;2.27;;;11.90;99.90;;;;;;483456;245;28401;-69
2022/07/16 02:13:56;;;;;;;3.33;2.63;;;11.80;99.90;;;;;;483450;245;28486;-68
2022/07/16 02:15:57;;;;;;;2.50;2.30;;;11.80;99.90;;;;;;483448;245;28905;-69
2022/07/16 02:17:58;;;;;;;2.83;2.63;;;11.80;99.90;;;;;;483462;245;28738;-72
2022/07/16 02:20:00;;;;;;;2.27;2.17;;;11.80;99.90;;;;;;483452;245;28696;-68
2022/07/16 02:22:01;;;;;;;2.50;2.30;;;11.80;99.90;;;;;;483436;245;28746;-68
2022/07/16 02:24:02;;;;;;;2.40;2.30;;;11.70;99.90;;;;;;483435;245;28350;-69
2022/07/16 02:26:03;;;;;;;3.03;2.70;;;11.60;99.90;;;;;;483457;245;28464;-68
2022/07/16 02:28:08;;;;;;;2.60;2.40;;;11.50;99.90;;;;;;483388;246;28497;-70
2022/07/16 02:30:09;;;;;;;2.23;2.13;;;11.60;99.90;;;;;;483463;245;28292;-70
2022/07/16 02:32:10;;;;;;;2.70;2.50;;;11.70;99.90;;;;;;483453;245;28169;-67
2022/07/16 02:34:11;;;;;;;2.60;2.50;;;11.70;99.90;;;;;;483436;245;28470;-68
2022/07/16 02:36:13;;;;;;;2.50;2.40;;;11.70;99.90;;;;;;483460;245;28189;-68
2022/07/16 02:38:14;;;;;;;2.60;2.40;;;11.70;99.90;;;;;;483456;245;28369;-69
2022/07/16 02:40:15;;;;;;;2.33;2.23;;;11.70;99.90;;;;;;483462;245;28405;-70
2022/07/16 02:42:17;;;;;;;3.20;2.50;;;11.60;99.90;;;;;;483483;245;28277;-68
2022/07/16 02:44:18;;;;;;;2.30;2.20;;;11.50;99.90;;;;;;483473;245;28513;-69
2022/07/16 02:46:19;;;;;;;2.40;2.30;;;11.60;99.90;;;;;;483442;243;28825;-71
2022/07/16 02:48:20;;;;;;;2.60;2.40;;;11.50;99.90;;;;;;483457;245;28839;-68
2022/07/16 02:50:21;;;;;;;2.83;2.63;;;11.40;99.90;;;;;;483449;245;28779;-70
2022/07/16 02:52:23;;;;;;;2.60;2.43;;;11.50;99.90;;;;;;483459;245;28782;-68
2022/07/16 02:54:24;;;;;;;2.70;2.40;;;11.40;99.90;;;;;;483453;245;28925;-68
2022/07/16 02:56:25;;;;;;;2.90;2.70;;;11.20;99.90;;;;;;483451;245;28079;-68
2022/07/16 02:58:26;;;;;;;2.87;2.67;;;11.20;99.90;;;;;;483451;245;28246;-69
2022/07/16 03:00:28;;;;;;;2.67;2.50;;;11.20;99.90;;;;;;483450;245;28366;-69
2022/07/16 03:02:29;;;;;;;3.00;2.80;;;11.20;99.90;;;;;;483438;245;28306;-68
2022/07/16 03:04:30;;;;;;;2.70;2.50;;;11.20;99.90;;;;;;483452;245;28270;-68
2022/07/16 03:06:31;;;;;;;2.67;2.47;;;11.20;99.90;;;;;;483438;246;28280;-68
2022/07/16 03:08:33;;;;;;;2.50;2.30;;;11.20;99.90;;;;;;483445;245;28263;-68
2022/07/16 03:10:34;;;;;;;2.40;2.30;;;11.30;99.90;;;;;;483442;245;28175;-70
2022/07/16 03:12:35;;;;;;;2.37;2.27;;;11.30;99.90;;;;;;483436;246;28749;-68
2022/07/16 03:14:36;;;;;;;2.63;2.43;;;11.30;99.90;;;;;;483442;245;28827;-68
2022/07/16 03:16:38;;;;;;;2.40;2.20;;;11.20;99.90;;;;;;483446;245;28850;-68
2022/07/16 03:18:39;;;;;;;2.30;2.20;;;11.10;99.90;;;;;;483444;246;28514;-69
2022/07/16 03:20:40;;;;;;;2.87;2.67;;;11.00;99.90;;;;;;483331;245;28146;-67
2022/07/16 03:22:41;;;;;;;2.53;2.33;;;11.00;99.90;;;;;;483397;245;28187;-68
2022/07/16 03:24:43;;;;;;;2.40;2.30;;;11.00;99.90;;;;;;483456;245;28075;-69
2022/07/16 03:26:44;;;;;;;2.60;2.40;;;10.90;99.90;;;;;;483429;246;28032;-68
2022/07/16 03:28:45;;;;;;;2.87;2.67;;;11.00;99.90;;;;;;483447;245;28257;-68
2022/07/16 03:30:47;;;;;;;2.80;2.70;;;11.00;99.90;;;;;;483446;245;28171;-70
2022/07/16 03:32:48;;;;;;;2.10;2.00;;;11.00;99.90;;;;;;483435;246;28172;-68
2022/07/16 03:34:49;;;;;;;2.50;2.30;;;10.70;99.90;;;;;;483455;246;28312;-69
2022/07/16 03:36:50;;;;;;;2.40;2.30;;;10.80;99.90;;;;;;483431;245;28015;-68
2022/07/16 03:39:25;;;;;;;2.53;2.33;;;10.80;99.90;;;;;;483423;245;28552;-69
2022/07/16 03:40:59;;;;;;;2.17;2.07;;;10.90;99.90;;;;;;482035;246;28283;-72
2022/07/16 03:43:00;;;;;;;2.30;2.20;;;10.90;99.90;;;;;;483451;245;28316;-68
2022/07/16 03:45:01;;;;;;;2.30;2.20;;;11.00;99.90;;;;;;483430;245;28102;-69
2022/07/16 03:47:02;;;;;;;2.33;2.23;;;10.90;99.90;;;;;;483436;245;28161;-68
2022/07/16 03:49:04;;;;;;;2.50;2.30;;;10.90;99.90;;;;;;483447;245;27988;-68
2022/07/16 03:51:06;;;;;;;2.43;2.20;;;10.90;99.90;;;;;;483437;246;28408;-72
2022/07/16 03:53:06;;;;;;;2.77;2.57;;;10.90;99.90;;;;;;483377;246;28052;-68
2022/07/16 03:55:08;;;;;;;2.10;2.00;;;10.90;99.90;;;;;;483448;245;28106;-69
2022/07/16 03:57:09;;;;;;;2.77;2.57;;;10.90;99.90;;;;;;483453;245;28642;-69
2022/07/16 03:59:13;;;;;;;2.30;2.20;;;10.80;99.90;;;;;;483419;245;28569;-69
2022/07/16 04:01:11;;;;;;;2.60;2.40;;;10.80;99.90;;;;;;483264;246;28659;-72
2022/07/16 04:03:12;;;;;;;2.43;2.23;;;10.80;99.90;;;;;;483445;246;28535;-68
2022/07/16 04:05:14;;;;;;;2.23;2.13;;;10.70;99.90;;;;;;483439;245;28082;-69
2022/07/16 04:07:15;;;;;;;2.57;2.37;;;10.60;99.90;;;;;;483450;245;28043;-68
2022/07/16 04:09:16;;;;;;;2.60;2.40;;;10.60;99.90;;;;;;483457;245;27980;-68
2022/07/16 04:11:17;;;;;;;3.03;2.40;;;10.70;99.90;;;;;;483477;246;28056;-72
2022/07/16 04:13:19;;;;;;;2.63;2.43;;;10.80;99.90;;;;;;483456;245;28184;-68
2022/07/16 04:15:20;;;;;;;3.00;2.80;;;10.70;99.90;;;;;;483428;245;28196;-69
2022/07/16 04:17:21;;;;;;;2.53;2.43;;;10.80;99.90;;;;;;483425;245;28193;-68
2022/07/16 04:19:22;;;;;;;2.70;2.50;;;10.80;99.90;;;;;;483443;245;28054;-69
2022/07/16 04:21:24;;;;;;;2.53;2.33;;;10.80;99.90;;;;;;483425;245;28165;-72
2022/07/16 04:23:25;;;;;;;2.00;1.90;;;10.90;99.90;;;;;;483301;245;28480;-69
2022/07/16 04:25:26;;;;;;;2.63;2.43;;;10.90;99.90;;;;;;483422;245;28721;-70
2022/07/16 04:27:27;;;;;;;2.53;2.33;;;10.80;99.90;;;;;;483438;245;28524;-68
2022/07/16 04:29:29;;;;;;;2.60;2.40;;;10.90;99.90;;;;;;483439;245;28212;-69
2022/07/16 04:31:30;;;;;;;2.03;1.93;;;10.90;99.90;;;;;;483424;245;28277;-74
2022/07/16 04:33:31;;;;;;;3.30;2.37;;;11.00;99.90;;;;;;483417;245;28120;-68
2022/07/16 04:35:32;;;;;;;3.07;2.33;;;11.10;99.90;;;;;;483416;245;28085;-71
2022/07/16 04:37:34;;;;;;;2.03;1.93;;;11.10;99.90;;;;;;483432;245;28242;-69
2022/07/16 04:39:35;;;;;;;2.00;1.90;;;11.20;99.90;;;;;;483428;245;28318;-68
2022/07/16 04:41:36;;;;;;;3.30;1.90;;;11.20;99.90;;;;;;483422;246;28216;-68
2022/07/16 04:43:37;;;;;;;2.10;1.90;;;11.20;99.90;;;;;;483419;246;28159;-68
2022/07/16 04:45:39;;;;;;;1.87;1.77;;;11.30;99.90;;;;;;483435;245;28289;-70
2022/07/16 04:47:41;;;;;;;2.27;2.17;;;;;;;;;;483415;245;28737;-70
2022/07/16 04:49:42;;;;;;;2.30;2.10;;;11.30;99.90;;;;;;483418;246;27183;-68
2022/07/16 04:51:44;;;;;;;1.90;1.80;;;11.30;99.90;;;;;;483453;246;28244;-68
2022/07/16 04:53:45;;;;;;;2.20;2.10;;;11.30;99.90;;;;;;483434;245;28289;-70
2022/07/16 04:55:46;;;;;;;2.00;1.90;;;11.40;99.90;;;;;;483429;245;28228;-68
2022/07/16 04:57:47;;;;;;;1.80;1.70;;;11.50;99.90;;;;;;483326;246;28213;-69
2022/07/16 04:59:49;;;;;;;2.30;2.20;;;11.60;99.90;;;;;;483428;245;28594;-68
2022/07/16 05:01:50;;;;;;;2.23;2.00;;;11.70;99.90;;;;;;483413;245;28822;-68
2022/07/16 05:03:51;;;;;;;3.33;2.10;;;11.70;99.90;;;;;;483444;245;28765;-71
2022/07/16 05:05:52;;;;;;;1.90;1.80;;;11.70;99.90;;;;;;483416;245;28449;-68
2022/07/16 05:07:54;;;;;;;2.20;2.10;;;11.80;99.90;;;;;;483447;246;28429;-68
2022/07/16 05:09:55;;;;;;;3.07;2.17;;;11.80;99.90;;;;;;483459;245;28583;-68
2022/07/16 05:11:56;;;;;;;1.90;1.80;;;11.90;99.90;;;;;;483437;245;28421;-69
2022/07/16 05:13:57;;;;;;;2.17;2.07;;;12.00;99.90;;;;;;483467;245;28416;-71
2022/07/16 05:16:01;;;;;;;2.43;2.23;;;12.00;99.90;;;;;;483444;245;28410;-69
2022/07/16 05:18:00;;;;;;;2.33;2.13;;;12.00;99.90;;;;;;483299;246;28894;-69
2022/07/16 05:20:01;;;;;;;2.73;1.97;;;12.10;99.90;;;;;;483400;245;28867;-68
2022/07/16 05:22:05;;;;;;;2.03;1.93;;;;;;;;;;483381;245;29360;-73
2022/07/16 05:24:05;;;;;;;2.13;2.03;;;12.20;99.90;;;;;;483329;246;26990;-70
2022/07/16 05:26:07;;;;;;;2.10;1.97;;;;;;;;;;483369;245;28920;-69
2022/07/16 05:28:09;;;;;;;2.80;1.70;;;12.40;99.90;;;;;;483396;246;27488;-69
2022/07/16 05:30:10;;;;;;;2.10;2.00;;;12.50;99.90;;;;;;483443;245;28869;-73
2022/07/16 05:32:11;;;;;;;2.07;1.97;;;12.50;99.90;;;;;;483470;245;28819;-69
2022/07/16 05:34:13;;;;;;;1.70;1.67;;;12.60;99.90;;;;;;483462;245;28102;-68
2022/07/16 05:36:14;;;;;;;2.63;2.20;;;12.50;99.90;;;;;;483438;245;28282;-68
2022/07/16 05:38:15;;;;;;;3.50;2.20;;;12.50;99.90;;;;;;483036;245;29050;-69
2022/07/16 05:40:16;;;;;;;1.97;1.87;;;12.60;99.90;;;;;;483183;245;28811;-71
2022/07/16 05:42:17;;;;;;;2.87;2.00;;;12.60;99.90;;;;;;483435;245;28499;-72
2022/07/16 05:44:19;;;;;;;2.10;1.90;;;12.80;99.90;;;;;;483490;245;28677;-69
2022/07/16 05:46:20;;;;;;;1.93;1.83;;;12.90;99.90;;;;;;483476;246;29152;-69
2022/07/16 05:48:21;;;;;;;2.13;2.03;;;12.90;99.90;;;;;;483461;245;28744;-69
2022/07/16 05:50:22;;;;;;;2.00;1.90;;;13.00;99.90;;;;;;483509;245;28564;-73
2022/07/16 05:52:25;;;;;;;2.23;2.03;;;;;;;;;;483486;245;28276;-70
2022/07/16 05:54:26;;;;;;;2.10;2.00;;;13.20;99.90;;;;;;483495;246;26613;-69
2022/07/16 05:56:27;;;;;;;1.87;1.77;;;13.30;99.90;;;;;;483429;245;28284;-69
2022/07/16 05:58:28;;;;;;;1.87;1.80;;;13.40;99.90;;;;;;483474;245;28745;-72
2022/07/16 06:00:31;;;;;;;2.43;2.23;;;;;;;;;;483498;245;28690;-69
2022/07/16 06:02:32;;;;;;;1.80;1.70;;;13.50;99.90;;;;;;483472;246;26481;-69
2022/07/16 06:04:33;;;;;;;1.83;1.73;;;13.60;99.90;;;;;;483448;245;28406;-69
2022/07/16 06:06:35;;;;;;;2.37;2.23;;;13.60;99.90;;;;;;483476;245;28641;-72
2022/07/16 06:08:36;;;;;;;2.10;2.00;;;13.70;99.90;;;;;;483497;245;28277;-69
2022/07/16 06:10:37;;;;;;;2.10;2.00;;;13.80;99.90;;;;;;483485;246;28387;-69
2022/07/16 06:12:38;;;;;;;2.10;2.00;;;13.80;99.90;;;;;;483468;245;28718;-68
2022/07/16 06:14:40;;;;;;;1.67;1.60;;;13.90;99.90;;;;;;483427;246;29026;-69
2022/07/16 06:16:41;;;;;;;1.70;1.60;;;14.00;99.90;;;;;;483471;245;28939;-68
2022/07/16 06:18:42;;;;;;;1.93;1.83;;;14.10;99.90;;;;;;483442;245;28566;-68
2022/07/16 06:20:43;;;;;;;1.90;1.80;;;14.20;99.90;;;;;;483444;245;28388;-71
2022/07/16 06:22:45;;;;;;;2.00;1.70;;;14.30;99.90;;;;;;483447;245;28384;-69
2022/07/16 06:24:46;;;;;;;3.53;2.00;;;14.40;99.90;;;;;;483442;245;28480;-70
2022/07/16 06:26:47;;;;;;;2.53;2.10;;;14.50;99.90;;;;;;483440;245;28297;-69
2022/07/16 06:28:48;;;;;;;1.90;1.80;;;14.70;99.90;;;;;;483444;245;28359;-69
2022/07/16 06:30:50;;;;;;;2.10;2.00;;;14.80;99.90;;;;;;483446;245;28548;-71
2022/07/16 06:32:51;;;;;;;2.10;2.00;;;14.90;99.90;;;;;;483432;245;28840;-69
2022/07/16 06:34:52;;;;;;;2.30;2.20;;;14.90;99.90;;;;;;483447;245;28583;-69
2022/07/16 06:36:53;;;;;;;5.00;2.23;;;15.00;99.90;;;;;;483435;245;29370;-72
2022/07/16 06:38:55;;;;;;;2.10;2.00;;;15.10;99.90;;;;;;483452;246;29252;-68
2022/07/16 06:40:56;;;;;;;3.23;1.90;;;15.20;99.90;;;;;;483440;245;29300;-70
2022/07/16 06:42:57;;;;;;;2.20;2.10;;;15.40;99.90;;;;;;483435;245;29262;-68
2022/07/16 06:44:58;;;;;;;2.03;1.90;;;15.50;99.90;;;;;;483388;245;28810;-69
2022/07/16 06:47:00;;;;;;;2.07;1.97;;;15.60;99.90;;;;;;483408;246;28825;-69
2022/07/16 06:49:01;;;;;;;2.93;2.23;;;15.70;99.90;;;;;;483448;245;28891;-69
2022/07/16 06:51:02;;;;;;;2.13;1.93;;;15.70;99.90;;;;;;483457;245;28831;-69
2022/07/16 06:53:03;;;;;;;2.80;1.80;;;15.80;99.90;;;;;;483463;245;28896;-69
2022/07/16 06:55:05;;;;;;;2.10;2.00;;;16.10;99.90;;;;;;483467;245;28825;-69
2022/07/16 06:57:06;;;;;;;1.93;1.70;;;16.30;99.90;;;;;;483464;245;28853;-68
2022/07/16 06:59:07;;;;;;;1.90;1.80;;;16.30;99.90;;;;;;483425;246;28776;-68
2022/07/16 07:01:08;;;;;;;4.40;2.17;;;16.30;99.90;;;;;;483367;245;29234;-70
2022/07/16 07:03:11;;;;;;;1.70;1.60;;;16.40;99.90;;;;;;483449;245;29328;-69
2022/07/16 07:05:11;;;;;;;2.30;1.87;;;16.50;99.90;;;;;;483398;245;29320;-69
2022/07/16 07:07:12;;;;;;;1.97;1.73;;;16.70;99.90;;;;;;483490;245;29303;-72
2022/07/16 07:09:13;;;;;;;1.83;1.73;;;16.80;99.90;;;;;;483477;245;28811;-69
2022/07/16 07:11:15;;;;;;;2.97;1.93;;;16.70;99.90;;;;;;483495;245;28818;-69
2022/07/16 07:13:16;;;;;;;1.90;1.80;;;16.80;99.90;;;;;;483489;245;28766;-69
2022/07/16 07:15:18;;;;;;;1.80;1.70;;;16.90;99.90;;;;;;483474;245;28854;-69
2022/07/16 07:17:18;;;;;;;1.90;1.70;;;16.90;99.90;;;;;;483468;245;28798;-72
2022/07/16 07:19:20;;;;;;;1.70;1.60;;;17.00;99.90;;;;;;483488;246;28811;-70
2022/07/16 07:21:21;;;;;;;2.73;1.67;;;17.00;99.90;;;;;;483488;245;28864;-70
2022/07/16 07:23:22;;;;;;;4.20;2.10;;;17.20;99.90;;;;;;483467;245;28805;-70
2022/07/16 07:25:23;;;;;;;1.60;1.50;;;17.20;99.90;;;;;;483464;245;28858;-69
2022/07/16 07:27:25;;;;;;;1.40;1.40;;;17.20;99.90;;;;;;483471;245;29275;-72
2022/07/16 07:29:26;;;;;;;2.20;1.30;;;17.20;99.90;;;;;;483471;245;29300;-68
2022/07/16 07:31:27;;;;;;;1.67;1.50;;;17.20;99.90;;;;;;483430;245;29283;-69
2022/07/16 07:33:28;;;;;;;1.67;1.57;;;17.30;99.90;;;;;;483446;245;29342;-69
2022/07/16 07:35:30;;;;;;;3.73;1.60;;;17.40;99.90;;;;;;483451;245;28891;-69
2022/07/16 07:37:31;;;;;;;3.60;1.70;;;17.30;99.90;;;;;;483366;245;28810;-71
2022/07/16 07:39:32;;;;;;;1.87;1.67;;;17.30;99.90;;;;;;483437;245;28847;-69
2022/07/16 07:41:33;;;;;;;1.67;1.57;;;17.30;99.90;;;;;;483449;245;28813;-70
2022/07/16 07:43:35;;;;;;;1.70;1.60;;;17.50;99.90;;;;;;483431;245;28828;-69
2022/07/16 07:45:36;;;;;;;1.50;1.40;;;17.60;99.90;;;;;;483445;246;28871;-69
2022/07/16 07:47:37;;;;;;;1.53;1.43;;;17.60;99.90;;;;;;483449;245;28810;-69
2022/07/16 07:49:39;;;;;;;1.70;1.60;;;17.60;99.90;;;;;;483452;245;28771;-70
2022/07/16 07:51:40;;;;;;;1.50;1.40;;;17.70;99.90;;;;;;483435;245;29329;-69
2022/07/16 07:53:41;;;;;;;1.50;1.40;;;17.80;99.90;;;;;;483439;245;30004;-69
2022/07/16 07:55:42;;;;;;;3.03;2.00;;;17.80;99.90;;;;;;483461;245;29349;-69
2022/07/16 07:57:44;;;;;;;2.40;1.50;;;17.90;99.90;;;;;;483468;245;29275;-69
2022/07/16 07:59:45;;;;;;;1.83;1.67;;;17.90;99.90;;;;;;483450;245;28771;-70
2022/07/16 08:01:46;;;;;;;3.97;1.90;;;18.00;99.90;;;;;;483458;245;28818;-69
2022/07/16 08:03:47;;;;;;;1.60;1.43;;;18.00;99.90;;;;;;483456;245;28824;-74
2022/07/16 08:05:49;;;;;;;1.57;1.47;;;17.90;99.90;;;;;;483444;245;28763;-69
2022/07/16 08:07:50;;;;;;;1.50;1.40;;;17.90;99.90;;;;;;483431;245;28848;-71
2022/07/16 08:09:51;;;;;;;4.03;2.10;;;17.90;99.90;;;;;;483457;244;28807;-69
2022/07/16 08:11:52;;;;;;;1.60;1.50;;;18.20;99.90;;;;;;483460;245;28819;-69
2022/07/16 08:13:54;;;;;;;1.70;1.60;;;18.20;99.90;;;;;;483441;245;28851;-74
2022/07/16 08:15:55;;;;;;;1.60;1.50;;;18.30;99.90;;;;;;483427;245;29267;-69
2022/07/16 08:17:56;;;;;;;2.17;1.80;;;18.20;99.90;;;;;;483450;245;29387;-71
2022/07/16 08:19:57;;;;;;;2.30;1.60;;;18.20;99.90;;;;;;483468;245;29248;-69
2022/07/16 08:21:59;;;;;;;1.80;1.60;;;18.30;99.90;;;;;;483484;245;29308;-69
2022/07/16 08:26:19;;;;;;;1.97;1.80;;;18.10;99.90;;;;;;483469;246;28829;-69
2022/07/16 08:28:20;;;;;;;1.90;1.80;;;18.00;99.90;;;;;;483471;245;28906;-71
2022/07/16 08:30:22;;;;;;;1.90;1.77;;;18.00;99.90;;;;;;483454;245;28783;-69
2022/07/16 08:32:23;;;;;;;2.47;1.73;;;18.40;99.90;;;;;;483415;245;28811;-70
2022/07/16 08:34:24;;;;;;;1.90;1.63;;;18.60;99.90;;;;;;483396;246;29455;-71
2022/07/16 08:36:26;;;;;;;4.03;1.83;;;18.60;99.90;;;;;;483451;246;29339;-68
2022/07/16 08:38:27;;;;;;;1.83;1.73;;;18.50;99.90;;;;;;483372;245;29274;-70
2022/07/16 08:40:28;;;;;;;4.30;1.90;;;18.50;99.90;;;;;;483470;245;29243;-69
2022/07/16 08:42:29;;;;;;;3.03;2.03;;;18.60;99.90;;;;;;483456;245;28804;-69
2022/07/16 08:44:30;;;;;;;2.80;1.80;;;18.70;99.90;;;;;;483471;245;28882;-72
2022/07/16 08:46:32;;;;;;;2.63;2.23;;;18.80;99.90;;;;;;483455;245;28771;-68
2022/07/16 08:48:33;;;;;;;3.47;2.23;;;18.70;99.90;;;;;;483449;245;28814;-70
2022/07/16 08:50:34;;;;;;;1.77;1.67;;;18.50;99.90;;;;;;483449;246;28886;-68
2022/07/16 08:52:35;;;;;;;4.30;1.80;;;18.50;99.90;;;;;;483452;245;28831;-69
2022/07/16 08:54:37;;;;;;;2.77;1.90;;;18.50;99.90;;;;;;483436;246;29187;-69
2022/07/16 08:56:38;;;;;;;1.80;1.70;;;18.60;99.90;;;;;;483439;245;28764;-69
2022/07/16 08:58:39;;;;;;;3.07;1.80;;;19.00;99.90;;;;;;483423;245;29313;-69
2022/07/16 09:00:40;;;;;;;2.67;1.90;;;18.80;99.90;;;;;;483424;245;29397;-68
2022/07/16 09:02:42;;;;;;;2.17;1.93;;;19.10;99.90;;;;;;483436;245;29279;-69
2022/07/16 09:04:43;;;;;;;3.20;2.00;;;19.10;99.90;;;;;;483425;245;30135;-69
2022/07/16 09:06:46;;;;;;;2.10;1.90;;;19.10;99.90;;;;;;483467;245;28794;-69
2022/07/16 09:08:45;;;;;;;2.27;2.00;;;19.20;99.90;;;;;;483318;245;28889;-70
2022/07/16 09:10:47;;;;;;;2.60;1.97;;;19.10;99.90;;;;;;483471;245;28891;-69
2022/07/16 09:12:48;;;;;;;1.73;1.63;;;19.00;99.90;;;;;;483475;245;28838;-69
2022/07/16 09:14:49;;;;;;;1.97;1.87;;;19.00;99.90;;;;;;483473;245;28769;-68
2022/07/16 09:16:50;;;;;;;8.17;2.17;;;19.10;99.90;;;;;;483438;246;28741;-69
2022/07/16 09:18:52;;;;;;;1.80;1.70;;;19.20;99.90;;;;;;483464;246;28728;-69
2022/07/16 09:20:53;;;;;;;1.97;1.80;;;19.30;99.90;;;;;;483459;246;28782;-70
2022/07/16 09:22:54;;;;;;;1.70;1.50;;;19.30;99.90;;;;;;483416;245;28789;-69
2022/07/16 09:24:55;;;;;;;3.40;2.20;;;19.20;99.90;;;;;;483454;245;29282;-72
2022/07/16 09:26:57;;;;;;;2.40;1.90;;;19.20;99.90;;;;;;483454;245;29430;-69
2022/07/16 09:28:58;;;;;;;4.53;1.70;;;19.20;99.90;;;;;;480718;245;36460;-70
2022/07/16 09:30:59;;;;;;;1.77;1.67;;;19.20;99.90;;;;;;483444;245;27439;-69
2022/07/16 09:33:00;;;;;;;2.10;1.90;;;19.30;99.90;;;;;;483431;246;28814;-69
2022/07/16 09:35:02;;;;;;;1.83;1.73;;;19.30;99.90;;;;;;483461;245;28909;-69
2022/07/16 09:37:03;;;;;;;1.93;1.83;;;19.40;99.90;;;;;;483444;245;28847;-69
2022/07/16 09:39:05;;;;;;;1.93;1.70;;;19.60;99.90;;;;;;483452;245;28802;-71
2022/07/16 09:41:05;;;;;;;2.27;1.67;;;19.70;99.90;;;;;;483418;245;28797;-68
2022/07/16 09:43:07;;;;;;;3.37;2.07;;;19.70;99.90;;;;;;483435;245;28810;-69
2022/07/16 09:45:08;;;;;;;2.07;1.87;;;19.90;99.90;;;;;;483478;245;28771;-69
2022/07/16 09:47:09;;;;;;;1.90;1.80;;;19.90;99.90;;;;;;483462;245;28702;-69
2022/07/16 09:49:10;;;;;;;1.97;1.87;;;19.80;99.90;;;;;;483457;245;29293;-71
2022/07/16 09:51:12;;;;;;;2.17;1.97;;;19.90;99.90;;;;;;483360;245;29603;-68
2022/07/16 09:53:13;;;;;;;2.10;1.50;;;19.80;99.90;;;;;;483489;245;29168;-69
2022/07/16 09:55:14;;;;;;;4.00;2.07;;;20.10;99.90;;;;;;483485;244;28793;-69
2022/07/16 09:57:20;;;;;;;2.37;2.10;;;20.10;99.90;;;;;;483459;245;28937;-69
2022/07/16 09:59:19;;;;;;;2.17;2.00;;;20.20;99.90;;;;;;483352;243;28788;-69
2022/07/16 10:01:21;;;;;;;2.10;1.90;;;20.20;99.90;;;;;;483474;245;28826;-73
2022/07/16 10:03:22;;;;;;;1.63;1.53;;;20.10;99.90;;;;;;483462;245;29215;-69
2022/07/16 10:05:23;;;;;;;1.70;1.60;;;20.10;99.90;;;;;;483465;245;29317;-70
2022/07/16 10:07:24;;;;;;;2.10;1.80;;;20.20;99.90;;;;;;483491;245;29133;-69
2022/07/16 10:09:26;;;;;;;2.10;1.90;;;20.20;99.90;;;;;;483443;245;28802;-69
2022/07/16 10:11:27;;;;;;;1.93;1.80;;;20.10;99.90;;;;;;483491;245;28905;-72
2022/07/16 10:13:28;;;;;;;2.33;1.77;;;20.40;99.90;;;;;;483464;245;28870;-69
2022/07/16 10:15:29;;;;;;;1.70;1.60;;;20.70;99.90;;;;;;483464;245;28806;-71
2022/07/16 10:17:31;;;;;;;2.57;2.17;;;20.70;99.90;;;;;;483427;245;28795;-69
2022/07/16 10:19:32;;;;;;;2.07;1.97;;;20.70;99.90;;;;;;483446;245;28814;-69
2022/07/16 10:21:33;;;;;;;1.70;1.60;;;20.60;99.90;;;;;;483463;245;28836;-74
2022/07/16 10:23:34;;;;;;;1.80;1.70;;;20.80;99.90;;;;;;483461;243;28780;-69
2022/07/16 10:25:36;;;;;;;3.50;1.90;;;20.70;99.90;;;;;;483416;245;28828;-68
2022/07/16 10:27:37;;;;;;;2.00;1.73;;;20.80;99.90;;;;;;483453;245;29242;-69
2022/07/16 10:29:38;;;;;;;1.80;1.70;;;20.80;99.90;;;;;;483462;245;29250;-69
2022/07/16 10:31:40;;;;;;;2.00;1.90;;;20.70;99.90;;;;;;483146;245;29292;-72
2022/07/16 10:33:41;;;;;;;2.23;2.00;;;20.60;99.90;;;;;;483391;245;29264;-69
2022/07/16 10:35:43;;;;;;;3.77;1.60;;;20.80;99.90;;;;;;483449;245;28806;-70
2022/07/16 10:37:43;;;;;;;3.83;1.80;;;20.80;99.90;;;;;;483406;246;28887;-69